CMB862 Details

Departure: Keflavík International Airport (BIKF)
Arrival: Norfolk Naval Station (Chambers Field) (KNGU) at N/A
Route: RALOV1D RALOV RAKIS 6235N N6040 5944N 5650N YAY J580 YQY YQI J585 ACK J62 RIFLE J174 SWL RAPTR
Notes: USTRANSCOM CONTRACT FLIGHT


Current Weather Information
BIKF 251200Z 11026KT 9999 -RA FEW015 OVC046 10/08 Q0997
KNGU 251159Z 03016KT 10SM BKN070 OVC120 23/14 A3013 RMK AO2 SLP203 60000 T02280139 10233 20222 53007 $